Time;durP1;ratioP1;P1;durP2;ratioP2;P2;SDS_P1;SDS_P2;PMS_P1;PMS_P2;Temp;Humidity;BMP_temperature;BMP_pressure;BME280_temperature;BME280_humidity;BME280_pressure;Samples;Min_cycle;Max_cycle;Signal;HPM_P1;HPM_P2
2020/12/05 00:02:17;;;;;;;16.38;10.80;;;4.70;99.90;;;;;;4954512;28;20866;-62
2020/12/05 00:04:43;;;;;;;19.23;11.13;;;4.70;99.90;;;;;;4991202;28;20546;-61
2020/12/05 00:07:09;;;;;;;20.30;12.43;;;4.70;99.90;;;;;;4992835;28;20160;-62
2020/12/05 00:09:35;;;;;;;20.52;11.95;;;4.70;99.90;;;;;;4991383;28;20893;-62
2020/12/05 00:12:05;;;;;;;18.63;13.23;;;4.70;99.90;;;;;;4991393;28;20074;-62
2020/12/05 00:14:31;;;;;;;19.15;12.68;;;4.60;99.90;;;;;;4995305;28;20030;-62
2020/12/05 00:16:56;;;;;;;22.65;13.48;;;4.60;99.90;;;;;;4995300;28;20041;-62
2020/12/05 00:19:22;;;;;;;18.75;12.05;;;4.60;99.90;;;;;;4992794;28;20108;-61
2020/12/05 00:21:57;;;;;;;19.23;12.55;;;4.60;99.90;;;;;;4992533;28;20041;-61
2020/12/05 00:24:24;;;;;;;20.13;12.73;;;4.70;99.90;;;;;;4991283;28;20026;-58
2020/12/05 00:26:51;;;;;;;23.83;13.55;;;4.70;99.90;;;;;;4994181;28;20031;-59
2020/12/05 00:29:17;;;;;;;21.02;12.82;;;4.70;99.90;;;;;;4992101;28;20026;-61
2020/12/05 00:31:43;;;;;;;22.52;14.52;;;4.70;99.90;;;;;;5000477;28;20049;-62
2020/12/05 00:34:09;;;;;;;22.10;13.15;;;4.70;99.90;;;;;;4991620;28;21205;-60
2020/12/05 00:36:35;;;;;;;21.30;14.15;;;4.80;99.90;;;;;;4992642;28;20033;-61
2020/12/05 00:39:02;;;;;;;21.02;13.05;;;4.80;99.90;;;;;;4999661;28;20026;-60
2020/12/05 00:41:27;;;;;;;23.98;14.00;;;4.80;99.90;;;;;;5011899;28;20028;-63
2020/12/05 00:43:53;;;;;;;26.63;14.77;;;4.70;99.90;;;;;;5002464;28;20103;-60
2020/12/05 00:46:19;;;;;;;23.98;14.15;;;4.80;99.90;;;;;;5009444;28;20062;-62
2020/12/05 00:48:45;;;;;;;26.80;15.20;;;4.70;99.90;;;;;;5008645;28;20040;-60
2020/12/05 00:51:12;;;;;;;28.30;15.10;;;4.70;99.90;;;;;;5008772;28;20116;-60
2020/12/05 00:53:38;;;;;;;24.58;14.73;;;4.80;99.90;;;;;;5007497;28;20767;-62
2020/12/05 00:56:03;;;;;;;27.42;14.35;;;4.80;99.90;;;;;;5006632;28;20036;-62
2020/12/05 00:58:34;;;;;;;26.20;16.08;;;4.80;99.90;;;;;;5008724;28;20037;-62
2020/12/05 01:01:01;;;;;;;27.10;16.40;;;4.80;99.90;;;;;;4988548;28;20050;-61
2020/12/05 01:03:27;;;;;;;24.38;15.55;;;4.80;99.90;;;;;;5017717;28;20025;-62
2020/12/05 01:05:54;;;;;;;25.15;15.98;;;4.80;99.90;;;;;;5005834;28;20621;-62
2020/12/05 01:08:20;;;;;;;24.73;15.55;;;4.80;99.90;;;;;;4994840;28;20515;-62
2020/12/05 01:10:46;;;;;;;26.38;16.83;;;4.90;99.90;;;;;;4997367;28;20042;-60
2020/12/05 01:13:11;;;;;;;31.88;16.85;;;4.80;99.90;;;;;;4999745;28;20911;-62
2020/12/05 01:15:37;;;;;;;26.42;16.42;;;4.80;99.90;;;;;;5011734;28;20399;-62
2020/12/05 01:18:02;;;;;;;30.88;18.08;;;4.80;99.90;;;;;;5003045;28;20054;-61
2020/12/05 01:20:28;;;;;;;24.95;15.60;;;4.70;99.90;;;;;;5003243;28;20069;-60
2020/12/05 01:22:54;;;;;;;25.83;16.08;;;4.70;99.90;;;;;;5005279;28;20081;-62
2020/12/05 01:25:20;;;;;;;25.73;16.55;;;4.70;99.90;;;;;;5003563;28;20041;-59
2020/12/05 01:27:45;;;;;;;27.33;16.15;;;4.70;99.90;;;;;;5006036;28;20041;-60
2020/12/05 01:30:11;;;;;;;32.10;16.45;;;4.70;99.90;;;;;;5004080;28;20036;-60
2020/12/05 01:32:38;;;;;;;27.23;16.38;;;4.80;99.90;;;;;;5006330;28;20080;-60
2020/12/05 01:35:04;;;;;;;27.67;16.48;;;4.70;99.90;;;;;;5003880;28;20036;-59
2020/12/05 01:37:30;;;;;;;27.88;17.10;;;4.80;99.90;;;;;;5011076;28;20764;-62
2020/12/05 01:39:55;;;;;;;26.45;16.65;;;4.80;99.90;;;;;;5016621;28;20105;-61
2020/12/05 01:42:21;;;;;;;27.13;17.08;;;4.80;99.90;;;;;;5012428;28;20029;-61
2020/12/05 01:44:47;;;;;;;26.98;16.52;;;4.70;99.90;;;;;;5008801;28;20026;-60
2020/12/05 01:47:13;;;;;;;25.90;15.98;;;4.70;99.90;;;;;;5022070;28;20029;-61
2020/12/05 01:49:39;;;;;;;28.52;16.98;;;4.80;99.90;;;;;;5008541;28;20034;-61
2020/12/05 01:52:05;;;;;;;33.30;19.08;;;4.80;99.90;;;;;;5011651;28;20033;-63
2020/12/05 01:54:31;;;;;;;31.98;17.38;;;4.80;99.90;;;;;;5005580;28;20124;-62
2020/12/05 01:57:03;;;;;;;29.88;16.90;;;4.80;99.90;;;;;;5020742;28;20113;-62
2020/12/05 01:59:29;;;;;;;25.02;17.15;;;4.70;99.90;;;;;;5015904;28;20052;-62
2020/12/05 02:02:04;;;;;;;33.83;17.83;;;4.70;99.90;;;;;;4998642;28;20046;-62
2020/12/05 02:04:35;;;;;;;30.95;18.45;;;4.70;99.90;;;;;;5008089;28;20076;-61
2020/12/05 02:07:16;;;;;;;26.55;17.55;;;4.70;99.90;;;;;;5018017;28;20022;-62
2020/12/05 02:09:46;;;;;;;27.80;17.50;;;4.70;99.90;;;;;;5021531;28;20483;-61
2020/12/05 02:12:28;;;;;;;30.13;17.50;;;4.80;99.90;;;;;;5014175;28;20029;-62
2020/12/05 02:15:01;;;;;;;29.75;18.90;;;4.80;99.90;;;;;;5014013;28;20033;-60
2020/12/05 02:17:28;;;;;;;30.53;17.40;;;4.70;99.90;;;;;;5014206;28;20404;-60
2020/12/05 02:19:56;;;;;;;27.70;18.13;;;4.70;99.90;;;;;;5015409;28;20034;-61
2020/12/05 02:22:26;;;;;;;30.98;18.15;;;4.70;99.90;;;;;;5015779;28;20117;-62
2020/12/05 02:24:53;;;;;;;30.42;18.33;;;4.70;99.90;;;;;;5023783;28;20025;-61
2020/12/05 02:27:20;;;;;;;32.65;18.92;;;4.70;99.90;;;;;;5019336;28;20023;-62
2020/12/05 02:29:46;;;;;;;31.38;19.88;;;4.70;99.90;;;;;;5009387;28;20169;-61
2020/12/05 02:32:11;;;;;;;30.50;19.65;;;4.60;99.90;;;;;;5010591;28;20041;-63
2020/12/05 02:34:37;;;;;;;33.35;19.58;;;4.60;99.90;;;;;;5016135;28;20037;-63
2020/12/05 02:37:09;;;;;;;32.97;19.67;;;4.60;99.90;;;;;;5022371;28;20095;-61
2020/12/05 02:39:35;;;;;;;33.13;19.85;;;4.60;99.90;;;;;;5018443;28;20022;-63
2020/12/05 02:42:01;;;;;;;34.05;19.35;;;4.60;99.90;;;;;;5010454;28;20104;-61
2020/12/05 02:44:26;;;;;;;32.65;20.30;;;4.50;99.90;;;;;;5008605;28;20104;-60
2020/12/05 02:46:55;;;;;;;36.97;21.77;;;4.50;99.90;;;;;;5010669;28;20033;-60
2020/12/05 02:49:20;;;;;;;31.98;20.17;;;4.50;99.90;;;;;;5023760;28;20040;-59
2020/12/05 02:51:46;;;;;;;39.90;20.83;;;4.50;99.90;;;;;;5009263;28;20030;-61
2020/12/05 02:54:11;;;;;;;33.13;19.33;;;4.50;99.90;;;;;;5022294;28;20036;-62
2020/12/05 02:56:37;;;;;;;34.00;20.17;;;4.50;99.90;;;;;;5006844;28;20731;-62
2020/12/05 02:59:04;;;;;;;36.03;21.27;;;4.50;99.90;;;;;;5011774;28;20059;-62
2020/12/05 03:01:30;;;;;;;32.58;19.13;;;4.50;99.90;;;;;;4997816;28;20057;-62
2020/12/05 03:03:56;;;;;;;36.95;21.92;;;4.50;99.90;;;;;;5011013;28;20513;-62
2020/12/05 03:06:21;;;;;;;36.53;21.05;;;4.60;99.90;;;;;;4995232;28;20037;-62
2020/12/05 03:08:47;;;;;;;35.13;20.02;;;4.50;99.90;;;;;;5018007;28;20080;-62
2020/12/05 03:11:12;;;;;;;39.60;22.05;;;4.50;99.90;;;;;;5012748;28;20040;-62
2020/12/05 03:13:38;;;;;;;33.90;20.77;;;4.50;99.90;;;;;;5005802;28;20388;-61
2020/12/05 03:16:07;;;;;;;38.80;21.85;;;4.50;99.90;;;;;;5019181;28;20117;-59
2020/12/05 03:18:33;;;;;;;36.03;21.77;;;4.50;99.90;;;;;;5008789;28;20061;-61
2020/12/05 03:20:59;;;;;;;36.95;20.60;;;4.40;99.90;;;;;;5009464;28;20479;-62
2020/12/05 03:23:24;;;;;;;39.38;21.25;;;4.40;99.90;;;;;;5005679;28;20026;-62
2020/12/05 03:25:56;;;;;;;42.30;23.20;;;4.40;99.90;;;;;;5008044;28;20034;-60
2020/12/05 03:28:22;;;;;;;37.85;21.83;;;4.40;99.90;;;;;;5012962;28;20022;-62
2020/12/05 03:30:47;;;;;;;38.17;22.50;;;4.40;99.90;;;;;;5011498;28;20171;-62
2020/12/05 03:33:13;;;;;;;40.03;22.13;;;4.40;99.90;;;;;;5008578;28;20044;-61
2020/12/05 03:35:39;;;;;;;38.03;22.40;;;4.30;99.90;;;;;;5006150;28;20092;-60
2020/12/05 03:38:04;;;;;;;39.00;22.77;;;4.30;99.90;;;;;;4998089;28;20511;-61
2020/12/05 03:40:30;;;;;;;43.45;22.80;;;4.30;99.90;;;;;;5013633;28;20025;-62
2020/12/05 03:42:55;;;;;;;38.03;20.85;;;4.30;99.90;;;;;;5014859;28;20018;-62
2020/12/05 03:45:21;;;;;;;38.17;22.67;;;4.30;99.90;;;;;;5012564;28;20442;-61
2020/12/05 03:47:46;;;;;;;40.05;22.55;;;4.20;99.90;;;;;;5010119;28;20033;-63
2020/12/05 03:50:12;;;;;;;42.88;22.45;;;4.30;99.90;;;;;;5015769;28;20106;-62
2020/12/05 03:52:38;;;;;;;44.70;23.63;;;4.20;99.90;;;;;;5011803;28;20479;-60
2020/12/05 03:55:03;;;;;;;40.00;21.98;;;4.20;99.90;;;;;;5016877;28;20080;-61
2020/12/05 03:57:29;;;;;;;45.15;22.48;;;4.20;99.90;;;;;;5004741;28;20021;-62
2020/12/05 03:59:54;;;;;;;41.20;23.05;;;4.20;99.90;;;;;;5019327;28;20037;-61
2020/12/05 04:02:20;;;;;;;41.38;23.35;;;4.20;99.90;;;;;;4989326;28;20058;-60
2020/12/05 04:04:45;;;;;;;45.97;23.85;;;4.20;99.90;;;;;;5007229;28;20042;-60
2020/12/05 04:07:11;;;;;;;39.13;22.52;;;4.10;99.90;;;;;;5002399;28;20038;-61
2020/12/05 04:09:37;;;;;;;45.60;23.95;;;4.10;99.90;;;;;;5007614;28;20041;-62
2020/12/05 04:12:02;;;;;;;37.90;22.50;;;4.20;99.90;;;;;;5017497;28;20490;-58
2020/12/05 04:14:28;;;;;;;41.28;21.73;;;4.20;99.90;;;;;;5020237;28;20037;-60
2020/12/05 04:16:53;;;;;;;36.38;20.52;;;4.20;99.90;;;;;;5014250;28;20647;-60
2020/12/05 04:19:19;;;;;;;38.70;21.65;;;4.20;99.90;;;;;;5020701;28;20080;-61
2020/12/05 04:21:45;;;;;;;37.05;21.30;;;4.20;99.90;;;;;;5017598;28;20025;-60
2020/12/05 04:24:10;;;;;;;36.50;21.00;;;4.10;99.90;;;;;;5015616;28;20028;-60
2020/12/05 04:26:36;;;;;;;41.65;22.00;;;4.10;99.90;;;;;;5016169;28;20486;-62
2020/12/05 04:29:02;;;;;;;40.35;22.92;;;4.10;99.90;;;;;;5008804;28;20065;-62
2020/12/05 04:31:27;;;;;;;41.60;22.50;;;4.10;99.90;;;;;;5018918;28;20033;-59
2020/12/05 04:33:53;;;;;;;45.28;22.95;;;4.10;99.90;;;;;;5012427;28;20026;-60
2020/12/05 04:36:18;;;;;;;39.55;21.35;;;4.10;99.90;;;;;;5011280;28;20648;-61
2020/12/05 04:38:44;;;;;;;42.55;21.63;;;4.10;99.90;;;;;;5013947;28;20022;-60
2020/12/05 04:41:10;;;;;;;41.47;23.35;;;4.00;99.90;;;;;;5011536;28;20087;-58
2020/12/05 04:43:36;;;;;;;42.20;21.63;;;4.00;99.90;;;;;;5023431;28;20438;-60
2020/12/05 04:46:04;;;;;;;40.22;21.42;;;4.00;99.90;;;;;;5008912;28;20021;-61
2020/12/05 04:48:31;;;;;;;40.42;20.70;;;4.00;99.90;;;;;;5019333;28;20040;-63
2020/12/05 04:51:01;;;;;;;40.38;23.23;;;4.00;99.90;;;;;;5007554;28;20096;-62
2020/12/05 04:53:27;;;;;;;48.22;22.35;;;4.00;99.90;;;;;;5019672;28;20037;-61
2020/12/05 04:55:57;;;;;;;41.92;22.52;;;4.00;99.90;;;;;;5008417;28;20033;-62
2020/12/05 04:58:24;;;;;;;39.60;22.48;;;4.00;99.90;;;;;;5020227;28;20021;-62
2020/12/05 05:00:58;;;;;;;46.80;23.48;;;4.00;99.90;;;;;;5000416;28;20018;-62
2020/12/05 05:03:27;;;;;;;42.28;21.98;;;3.90;99.90;;;;;;5015453;28;20034;-60
2020/12/05 05:05:57;;;;;;;47.55;23.58;;;3.90;99.90;;;;;;5012105;28;20033;-60
2020/12/05 05:08:27;;;;;;;42.20;23.33;;;3.90;99.90;;;;;;5017010;28;20041;-62
2020/12/05 05:11:10;;;;;;;45.70;22.90;;;3.90;99.90;;;;;;5015851;28;20026;-61
2020/12/05 05:13:48;;;;;;;44.35;22.23;;;3.90;99.90;;;;;;5020903;28;20038;-60
2020/12/05 05:16:15;;;;;;;38.72;22.70;;;3.80;99.90;;;;;;5007048;28;20028;-61
2020/12/05 05:18:40;;;;;;;49.47;23.23;;;3.80;99.90;;;;;;5020230;28;20499;-61
2020/12/05 05:21:06;;;;;;;50.20;24.00;;;3.80;99.90;;;;;;5020807;28;20006;-61
2020/12/05 05:23:33;;;;;;;44.42;22.90;;;3.80;99.90;;;;;;5015258;28;20436;-62
2020/12/05 05:26:04;;;;;;;42.38;22.05;;;3.80;99.90;;;;;;5005386;28;20042;-62
2020/12/05 05:28:32;;;;;;;41.95;21.35;;;3.70;99.90;;;;;;5021067;28;20691;-61
2020/12/05 05:31:08;;;;;;;41.20;21.95;;;3.80;99.90;;;;;;5017270;28;20115;-62
2020/12/05 05:33:41;;;;;;;42.95;22.35;;;3.70;99.90;;;;;;5006204;28;20033;-59
2020/12/05 05:36:23;;;;;;;42.17;21.83;;;3.70;99.90;;;;;;5014226;28;20083;-57
2020/12/05 05:38:56;;;;;;;42.78;22.33;;;3.60;99.90;;;;;;5015780;28;20072;-62
2020/12/05 05:41:21;;;;;;;45.05;23.00;;;3.60;99.90;;;;;;5023373;28;20030;-60
2020/12/05 05:44:05;;;;;;;50.33;21.55;;;3.50;99.90;;;;;;5010651;28;20121;-62
2020/12/05 05:46:34;;;;;;;50.90;24.33;;;3.50;99.90;;;;;;5018542;28;20798;-62
2020/12/05 05:49:01;;;;;;;42.85;22.50;;;3.40;99.90;;;;;;5015393;28;20307;-61
2020/12/05 05:51:40;;;;;;;45.47;23.58;;;3.40;99.90;;;;;;5013565;28;20044;-62
2020/12/05 05:54:09;;;;;;;43.83;21.30;;;3.30;99.90;;;;;;5017941;28;20172;-59
2020/12/05 05:56:34;;;;;;;37.03;20.60;;;3.30;99.90;;;;;;5009082;28;20467;-62
2020/12/05 05:59:01;;;;;;;39.83;21.45;;;3.20;99.90;;;;;;5010743;28;20033;-59
2020/12/05 06:01:27;;;;;;;44.78;22.38;;;3.20;99.90;;;;;;4996955;28;20179;-60
2020/12/05 06:04:02;;;;;;;50.20;24.45;;;3.10;99.90;;;;;;5008969;28;20037;-61
2020/12/05 06:06:28;;;;;;;52.63;23.13;;;3.10;99.90;;;;;;5008960;28;20038;-60
2020/12/05 06:08:57;;;;;;;91.13;41.33;;;3.10;99.90;;;;;;5011161;28;20496;-60
2020/12/05 06:11:23;;;;;;;99.20;47.15;;;3.00;99.90;;;;;;5015878;28;20022;-59
2020/12/05 06:13:50;;;;;;;78.03;36.95;;;2.90;99.90;;;;;;5010123;28;20033;-61
2020/12/05 06:16:18;;;;;;;70.05;33.20;;;2.90;99.90;;;;;;5018081;28;20036;-62
2020/12/05 06:18:44;;;;;;;58.80;28.55;;;2.80;99.90;;;;;;5010565;28;20033;-61
2020/12/05 06:21:10;;;;;;;57.25;28.25;;;2.80;99.90;;;;;;5008728;28;20080;-59
2020/12/05 06:23:47;;;;;;;60.85;28.60;;;2.80;99.90;;;;;;5012088;28;20033;-61
2020/12/05 06:26:30;;;;;;;51.60;27.13;;;2.80;99.90;;;;;;5006136;28;20098;-63
2020/12/05 06:28:59;;;;;;;56.95;26.48;;;2.70;99.90;;;;;;5020941;28;20406;-62
2020/12/05 06:31:45;;;;;;;50.22;24.38;;;2.70;99.90;;;;;;5016668;28;20029;-60
2020/12/05 06:34:32;;;;;;;57.30;27.67;;;2.70;99.90;;;;;;5012608;28;20040;-58
2020/12/05 06:36:58;;;;;;;53.22;24.83;;;2.70;99.90;;;;;;5018611;28;20470;-58
2020/12/05 06:39:24;;;;;;;56.92;26.27;;;2.60;99.90;;;;;;5012150;28;20014;-61
2020/12/05 06:41:50;;;;;;;62.38;28.77;;;2.60;99.90;;;;;;5025481;28;20026;-62
2020/12/05 06:44:17;;;;;;;71.10;30.08;;;2.60;99.90;;;;;;5011067;28;20494;-62
2020/12/05 06:46:57;;;;;;;61.90;27.15;;;2.60;99.90;;;;;;5007696;28;20080;-60
2020/12/05 06:49:38;;;;;;;63.03;28.45;;;2.60;99.90;;;;;;5012070;28;20045;-61
2020/12/05 06:52:24;;;;;;;64.10;28.52;;;2.60;99.90;;;;;;5011816;28;20434;-59
2020/12/05 06:54:53;;;;;;;60.10;27.13;;;2.60;99.90;;;;;;5012041;28;20108;-62
2020/12/05 06:57:20;;;;;;;71.03;30.80;;;2.60;99.90;;;;;;5015743;28;20060;-63
2020/12/05 06:59:45;;;;;;;65.15;30.08;;;2.60;99.90;;;;;;5018342;28;20061;-62
2020/12/05 07:02:30;;;;;;;102.97;42.75;;;2.60;99.90;;;;;;5000263;28;20365;-59
2020/12/05 07:05:20;;;;;;;112.78;42.13;;;2.70;99.90;;;;;;5009277;28;20400;-62
2020/12/05 07:07:57;;;;;;;82.07;38.22;;;2.70;99.90;;;;;;5021346;28;20025;-61
2020/12/05 07:10:52;;;;;;;77.25;36.38;;;2.70;99.90;;;;;;5008708;28;20396;-60
2020/12/05 07:13:37;;;;;;;128.85;54.45;;;2.80;99.90;;;;;;5015254;28;20029;-63
2020/12/05 07:16:09;;;;;;;;;;;2.80;99.90;;;;;;5021980;28;20029;-58
2020/12/05 07:18:38;;;;;;;117.90;49.60;;;2.80;99.90;;;;;;5008708;28;20333;-60
2020/12/05 07:21:05;;;;;;;100.63;42.13;;;2.90;99.90;;;;;;5009640;28;20033;-61
2020/12/05 07:23:30;;;;;;;113.05;44.05;;;2.90;99.90;;;;;;5015667;28;20520;-59
2020/12/05 07:25:58;;;;;;;137.80;53.42;;;3.00;99.90;;;;;;5016688;28;20111;-61
2020/12/05 07:28:23;;;;;;;88.63;36.53;;;3.00;99.90;;;;;;5015464;28;20026;-63
2020/12/05 07:30:50;;;;;;;113.20;43.10;;;3.00;99.90;;;;;;5012688;28;20026;-59
2020/12/05 07:33:16;;;;;;;70.93;32.88;;;3.00;99.90;;;;;;5017442;28;20042;-60
2020/12/05 07:35:42;;;;;;;80.80;35.90;;;3.00;99.90;;;;;;5005880;28;20506;-61
2020/12/05 07:38:11;;;;;;;105.25;46.58;;;3.00;99.90;;;;;;5016583;28;20025;-55
2020/12/05 07:40:37;;;;;;;112.85;48.42;;;3.10;99.90;;;;;;5020604;28;20021;-60
2020/12/05 07:43:03;;;;;;;85.22;39.22;;;3.10;99.90;;;;;;5020941;28;20728;-60
2020/12/05 07:45:30;;;;;;;62.88;28.75;;;3.10;99.90;;;;;;5002730;28;20030;-61
2020/12/05 07:47:56;;;;;;;55.08;27.73;;;3.20;99.90;;;;;;5013502;28;20042;-61
2020/12/05 07:50:22;;;;;;;63.03;28.83;;;3.20;99.90;;;;;;5006219;28;20158;-59
2020/12/05 07:52:47;;;;;;;59.45;27.85;;;3.30;99.90;;;;;;5015594;28;20026;-60
2020/12/05 07:55:13;;;;;;;52.00;26.08;;;3.30;99.90;;;;;;5010624;28;20030;-62
2020/12/05 07:57:50;;;;;;;57.40;28.02;;;3.40;99.90;;;;;;5017154;28;20034;-61
2020/12/05 08:00:18;;;;;;;55.03;26.30;;;3.40;99.90;;;;;;5006665;28;20036;-59
2020/12/05 08:03:05;;;;;;;54.45;27.92;;;3.40;99.90;;;;;;5004775;28;20049;-60
2020/12/05 08:05:44;;;;;;;60.70;28.15;;;3.50;99.90;;;;;;5012469;28;20509;-60
2020/12/05 08:08:14;;;;;;;63.17;30.08;;;3.50;99.90;;;;;;5015349;28;20030;-61
2020/12/05 08:10:40;;;;;;;43.22;21.98;;;3.50;99.90;;;;;;5014904;28;20029;-60
2020/12/05 08:13:17;;;;;;;43.97;21.95;;;3.60;99.90;;;;;;5013186;28;20388;-61
2020/12/05 08:15:44;;;;;;;32.10;17.88;;;3.70;99.90;;;;;;5020884;28;20033;-61
2020/12/05 08:18:10;;;;;;;53.65;25.70;;;3.80;99.90;;;;;;5004684;28;20025;-60
2020/12/05 08:20:47;;;;;;;53.63;25.67;;;3.90;99.90;;;;;;5015527;28;20050;-61
2020/12/05 08:23:30;;;;;;;67.30;29.95;;;3.90;99.90;;;;;;5010718;28;20040;-61
2020/12/05 08:25:59;;;;;;;32.47;18.60;;;4.00;99.90;;;;;;5016947;28;20053;-60
2020/12/05 08:28:26;;;;;;;23.75;15.25;;;4.00;99.90;;;;;;5007444;28;20077;-60
2020/12/05 08:30:54;;;;;;;25.83;14.82;;;4.10;99.90;;;;;;5014755;28;20057;-60
2020/12/05 08:33:20;;;;;;;24.50;13.98;;;4.10;99.90;;;;;;5009010;28;20045;-60
2020/12/05 08:35:45;;;;;;;35.15;17.90;;;4.20;99.90;;;;;;5013537;28;20029;-59
2020/12/05 08:38:14;;;;;;;30.55;17.23;;;4.30;99.90;;;;;;5020046;28;20022;-60
2020/12/05 08:40:41;;;;;;;32.35;17.40;;;4.30;99.90;;;;;;5019839;28;20026;-61
2020/12/05 08:43:06;;;;;;;45.70;23.10;;;4.30;99.90;;;;;;5001756;28;20159;-61
2020/12/05 08:45:38;;;;;;;45.33;23.10;;;4.40;99.90;;;;;;5020543;28;20112;-60
2020/12/05 08:48:15;;;;;;;28.73;16.10;;;4.50;99.90;;;;;;5008318;28;20439;-61
2020/12/05 08:50:41;;;;;;;30.00;15.27;;;4.60;99.90;;;;;;5013638;28;20033;-61
2020/12/05 08:53:06;;;;;;;20.98;13.80;;;4.70;99.90;;;;;;5013909;28;20025;-61
2020/12/05 08:55:32;;;;;;;22.40;14.35;;;4.70;99.90;;;;;;5021084;28;20112;-60
2020/12/05 08:58:03;;;;;;;21.20;13.77;;;4.70;99.90;;;;;;5005701;28;20598;-60
2020/12/05 09:00:33;;;;;;;23.60;13.88;;;4.70;99.90;;;;;;5022526;28;20430;-59
2020/12/05 09:02:59;;;;;;;22.40;13.82;;;4.60;99.90;;;;;;4988126;28;20045;-60
2020/12/05 09:05:25;;;;;;;23.38;12.77;;;4.60;99.90;;;;;;5005034;28;20030;-61
2020/12/05 09:08:01;;;;;;;22.67;13.20;;;4.60;99.90;;;;;;5004423;28;20068;-60
2020/12/05 09:10:28;;;;;;;20.70;12.68;;;4.70;99.90;;;;;;5004734;28;20066;-61
2020/12/05 09:13:14;;;;;;;22.67;13.57;;;4.70;99.90;;;;;;5003338;28;20030;-61
2020/12/05 09:16:05;;;;;;;21.33;12.82;;;4.70;99.90;;;;;;5007840;28;20119;-61
2020/12/05 09:18:42;;;;;;;19.00;11.77;;;4.60;99.90;;;;;;5017115;28;20109;-60
2020/12/05 09:21:19;;;;;;;20.08;13.02;;;4.60;99.90;;;;;;5001188;28;20113;-62
2020/12/05 09:23:58;;;;;;;22.60;13.90;;;4.60;99.90;;;;;;5011286;28;20109;-61
2020/12/05 09:26:23;;;;;;;19.85;10.25;;;4.60;99.90;;;;;;5006610;28;20104;-60
2020/12/05 09:28:49;;;;;;;19.55;10.18;;;4.60;99.90;;;;;;5017396;28;20045;-61
2020/12/05 09:31:15;;;;;;;14.23;8.77;;;4.60;99.90;;;;;;5015999;28;20035;-61
2020/12/05 09:33:44;;;;;;;16.33;9.65;;;4.60;99.90;;;;;;5016739;28;20034;-61
2020/12/05 09:36:10;;;;;;;14.38;9.68;;;4.60;99.90;;;;;;5014145;28;20038;-60
2020/12/05 09:38:35;;;;;;;18.90;11.02;;;4.60;99.90;;;;;;4999523;28;20052;-61
2020/12/05 09:41:01;;;;;;;22.52;13.07;;;4.70;99.90;;;;;;5018365;28;20024;-63
2020/12/05 09:43:27;;;;;;;10.90;7.88;;;4.70;99.90;;;;;;5010844;28;20610;-59
2020/12/05 09:45:52;;;;;;;11.07;6.30;;;4.80;99.90;;;;;;5017461;28;20033;-61
2020/12/05 09:48:18;;;;;;;8.43;5.15;;;4.80;99.90;;;;;;4995301;28;20026;-60
2020/12/05 09:50:44;;;;;;;8.77;5.28;;;4.80;99.90;;;;;;4971989;28;20057;-62
2020/12/05 09:53:09;;;;;;;8.57;5.03;;;4.90;99.90;;;;;;5005950;28;20034;-61
2020/12/05 09:55:35;;;;;;;6.43;3.85;;;4.90;99.90;;;;;;5006155;28;20037;-61
2020/12/05 09:58:01;;;;;;;6.13;3.25;;;4.90;99.90;;;;;;5008060;28;20076;-60
2020/12/05 10:00:27;;;;;;;4.30;3.13;;;5.00;99.90;;;;;;5006169;28;20026;-61
2020/12/05 10:02:52;;;;;;;6.57;3.67;;;5.00;99.90;;;;;;4995204;28;20045;-61
2020/12/05 10:05:19;;;;;;;6.28;3.15;;;5.10;99.90;;;;;;5011949;28;20033;-61
2020/12/05 10:07:44;;;;;;;4.68;2.63;;;5.10;99.90;;;;;;5010783;28;20030;-61
2020/12/05 10:10:10;;;;;;;2.90;1.90;;;5.20;99.90;;;;;;5019056;28;20041;-61
2020/12/05 10:12:36;;;;;;;3.83;2.00;;;5.20;99.90;;;;;;5012564;28;20029;-62
2020/12/05 10:15:04;;;;;;;3.33;1.67;;;5.20;99.90;;;;;;5018188;28;20568;-59
2020/12/05 10:17:30;;;;;;;3.60;2.22;;;5.20;99.90;;;;;;5007928;28;20021;-55
2020/12/05 10:19:55;;;;;;;3.97;2.50;;;5.30;99.90;;;;;;5007389;28;20018;-59
2020/12/05 10:22:21;;;;;;;7.03;3.90;;;5.30;99.90;;;;;;5008258;28;20100;-60
2020/12/05 10:24:47;;;;;;;7.63;2.50;;;5.30;99.90;;;;;;5010894;28;20686;-61
2020/12/05 10:27:12;;;;;;;13.90;6.32;;;5.40;99.90;;;;;;5008883;28;20017;-61
2020/12/05 10:29:38;;;;;;;10.85;5.93;;;5.40;99.90;;;;;;5009213;28;20111;-61
2020/12/05 10:32:04;;;;;;;11.55;4.90;;;5.50;99.90;;;;;;5009367;28;20494;-60
2020/12/05 10:34:29;;;;;;;8.35;3.60;;;5.60;99.90;;;;;;5010554;28;20033;-60
2020/12/05 10:36:55;;;;;;;4.47;2.80;;;5.70;99.90;;;;;;5006316;28;20071;-61
2020/12/05 10:39:20;;;;;;;6.18;3.13;;;5.80;99.90;;;;;;5010455;28;20155;-61
2020/12/05 10:41:48;;;;;;;3.80;1.33;;;5.90;99.90;;;;;;5008215;28;20029;-61
2020/12/05 10:44:14;;;;;;;6.88;4.13;;;6.10;99.90;;;;;;5016231;28;20048;-61
2020/12/05 10:46:41;;;;;;;4.53;1.50;;;6.10;99.90;;;;;;5008117;28;20487;-61
2020/12/05 10:49:06;;;;;;;17.52;8.32;;;6.10;99.90;;;;;;5016945;28;20426;-61
2020/12/05 10:51:32;;;;;;;6.38;3.45;;;6.10;99.90;;;;;;5008814;28;20029;-61
2020/12/05 10:53:57;;;;;;;2.85;1.42;;;6.10;99.90;;;;;;5009422;28;20038;-61
2020/12/05 10:56:26;;;;;;;3.05;1.15;;;6.20;99.90;;;;;;5010464;28;20018;-61
2020/12/05 10:58:52;;;;;;;1.10;0.80;;;6.20;99.90;;;;;;5020871;28;20056;-60
2020/12/05 11:01:18;;;;;;;8.38;0.90;;;6.30;99.90;;;;;;5013356;28;20026;-61
2020/12/05 11:03:44;;;;;;;1.50;0.90;;;6.40;99.90;;;;;;4985437;28;20054;-59
2020/12/05 11:06:09;;;;;;;2.28;1.20;;;6.50;99.90;;;;;;5006180;28;20036;-58
2020/12/05 11:08:35;;;;;;;1.52;1.00;;;6.50;99.90;;;;;;5005731;28;20472;-61
2020/12/05 11:11:00;;;;;;;1.75;0.90;;;6.50;99.90;;;;;;5015168;28;20394;-60
2020/12/05 11:13:26;;;;;;;2.20;1.35;;;6.50;99.90;;;;;;5011835;28;20449;-61
2020/12/05 11:15:51;;;;;;;1.77;1.35;;;6.50;99.90;;;;;;5007605;28;20395;-61
2020/12/05 11:18:17;;;;;;;2.20;1.23;;;6.50;99.90;;;;;;5012403;28;20014;-63
2020/12/05 11:20:42;;;;;;;4.03;1.33;;;6.40;99.90;;;;;;5005161;28;20014;-60
2020/12/05 11:23:08;;;;;;;1.85;1.33;;;6.40;99.90;;;;;;5004074;28;20019;-62
2020/12/05 11:25:33;;;;;;;2.90;1.15;;;6.40;99.90;;;;;;5001677;28;20030;-63
2020/12/05 11:27:59;;;;;;;2.35;1.40;;;6.30;99.90;;;;;;5004369;28;20030;-62
2020/12/05 11:30:24;;;;;;;5.50;2.65;;;6.20;99.90;;;;;;5006726;28;20022;-63
2020/12/05 11:32:50;;;;;;;3.13;1.60;;;6.10;99.90;;;;;;5003126;28;20022;-63
2020/12/05 11:35:15;;;;;;;8.73;3.15;;;6.10;99.90;;;;;;5007575;28;20030;-63
2020/12/05 11:37:41;;;;;;;5.50;1.30;;;6.20;99.90;;;;;;5005216;28;20029;-62
2020/12/05 11:40:07;;;;;;;4.03;2.15;;;6.30;99.90;;;;;;5020487;28;20025;-62
2020/12/05 11:42:33;;;;;;;6.22;2.88;;;6.30;99.90;;;;;;5010751;28;20041;-61
2020/12/05 11:44:59;;;;;;;5.15;1.52;;;6.40;99.90;;;;;;5021547;28;20018;-62
2020/12/05 11:47:26;;;;;;;1.77;0.98;;;6.30;99.90;;;;;;5018603;28;20129;-63
2020/12/05 11:49:51;;;;;;;2.15;1.00;;;6.30;99.90;;;;;;5017416;28;20068;-62
2020/12/05 11:52:17;;;;;;;5.43;1.65;;;6.30;99.90;;;;;;5005006;28;20061;-62
2020/12/05 11:54:42;;;;;;;8.10;3.25;;;6.30;99.90;;;;;;5021614;28;20049;-61
2020/12/05 11:57:08;;;;;;;15.18;5.55;;;6.30;99.90;;;;;;5019547;28;20036;-61
2020/12/05 11:59:33;;;;;;;11.40;5.40;;;6.30;99.90;;;;;;5024679;28;20029;-59
2020/12/05 12:01:59;;;;;;;8.52;3.88;;;6.30;99.90;;;;;;4989702;28;20029;-60
2020/12/05 12:04:25;;;;;;;12.13;5.63;;;6.30;99.90;;;;;;5009992;28;20026;-63
2020/12/05 12:06:50;;;;;;;6.53;3.35;;;6.30;99.90;;;;;;5006145;28;20177;-60
2020/12/05 12:09:16;;;;;;;29.05;11.27;;;6.30;99.90;;;;;;5011702;28;20030;-64
2020/12/05 12:11:42;;;;;;;5.78;2.45;;;6.30;99.90;;;;;;5008192;28;20036;-61
2020/12/05 12:14:07;;;;;;;5.88;2.58;;;6.40;99.90;;;;;;5007828;28;20260;-58
2020/12/05 12:16:33;;;;;;;2.47;1.00;;;6.30;99.90;;;;;;5020666;28;20040;-62
2020/12/05 12:18:58;;;;;;;2.42;1.10;;;6.30;99.90;;;;;;5016209;28;20080;-62
2020/12/05 12:21:25;;;;;;;2.38;1.02;;;6.30;99.90;;;;;;5019066;28;20091;-62
2020/12/05 12:23:51;;;;;;;7.07;3.00;;;6.30;99.90;;;;;;5007789;28;20040;-62
2020/12/05 12:26:17;;;;;;;7.10;2.90;;;6.30;99.90;;;;;;5017085;28;20120;-62
2020/12/05 12:28:42;;;;;;;2.70;1.25;;;6.30;99.90;;;;;;5011628;28;20034;-62
2020/12/05 12:31:08;;;;;;;8.95;3.15;;;6.30;99.90;;;;;;5016594;28;20024;-62
2020/12/05 12:33:34;;;;;;;9.07;4.00;;;6.30;99.90;;;;;;5010881;28;20053;-60
2020/12/05 12:35:59;;;;;;;3.05;1.58;;;6.30;99.90;;;;;;5013176;28;20090;-62
2020/12/05 12:38:25;;;;;;;9.75;3.70;;;6.30;99.90;;;;;;5012337;28;20042;-62
2020/12/05 12:40:50;;;;;;;6.93;2.63;;;6.30;99.90;;;;;;5006876;28;20037;-63
2020/12/05 12:43:16;;;;;;;3.95;1.45;;;6.30;99.90;;;;;;5004501;28;20092;-62
2020/12/05 12:45:43;;;;;;;8.50;2.47;;;6.30;99.90;;;;;;5005184;28;20038;-62